Time;durP1;ratioP1;P1;durP2;ratioP2;P2;SDS_P1;SDS_P2;PMS_P1;PMS_P2;Temp;Humidity;BMP_temperature;BMP_pressure;BME280_temperature;BME280_humidity;BME280_pressure;Samples;Min_cycle;Max_cycle;Signal;HPM_P1;HPM_P2
2022/05/14 00:00:19;;;;;;;10.27;6.33;;;;;;;18.92;61.81;94762.91;5072876;28;20433;-77
2022/05/14 00:02:48;;;;;;;9.40;6.53;;;;;;;18.89;61.57;94763.28;5072735;28;20467;-78
2022/05/14 00:05:15;;;;;;;7.30;6.60;;;;;;;18.93;61.76;94769.03;5072394;28;20536;-77
2022/05/14 00:07:43;;;;;;;6.90;6.30;;;;;;;18.92;61.58;94765.56;5073015;28;20448;-78
2022/05/14 00:10:11;;;;;;;6.53;6.03;;;;;;;18.89;61.70;94757.97;5072471;28;20445;-77
2022/05/14 00:15:23;;;;;;;8.00;7.20;;;;;;;18.83;61.78;94764.00;5072585;28;20573;-78
2022/05/14 00:17:51;;;;;;;8.50;7.07;;;;;;;18.76;62.33;94763.91;5072415;28;20458;-78
2022/05/14 00:20:18;;;;;;;7.40;6.70;;;;;;;18.71;62.38;94763.63;5072186;28;20472;-76
2022/05/14 00:22:47;;;;;;;7.90;7.10;;;;;;;18.64;62.92;94756.56;5072407;28;20460;-78
2022/05/14 00:25:13;;;;;;;7.67;6.97;;;;;;;18.59;63.08;94757.09;5072642;28;20449;-77
2022/05/14 00:27:42;;;;;;;9.20;7.57;;;;;;;18.50;63.35;94751.03;5020794;28;20444;-77
2022/05/14 00:30:11;;;;;;;7.80;6.90;;;;;;;18.50;63.33;94759.03;5072463;28;20445;-76
2022/05/14 00:32:38;;;;;;;6.80;6.30;;;;;;;18.55;63.30;94764.59;5036933;28;20516;-76
2022/05/14 00:35:07;;;;;;;8.80;8.00;;;;;;;18.47;63.52;94754.03;5071987;28;20488;-78
2022/05/14 00:37:35;;;;;;;7.70;6.97;;;;;;;18.53;62.88;94753.34;5072167;28;20443;-77
2022/05/14 00:40:05;;;;;;;8.03;7.33;;;;;;;18.57;63.24;94749.31;5072278;28;20433;-76
2022/05/14 00:42:32;;;;;;;7.10;6.50;;;;;;;18.58;63.07;94748.28;5072094;28;20527;-77
2022/05/14 00:44:59;;;;;;;7.73;7.00;;;;;;;18.63;62.90;94754.94;5072307;28;20445;-77
2022/05/14 00:47:30;;;;;;;8.57;7.63;;;;;;;18.58;63.00;94745.63;5072171;28;20449;-77
2022/05/14 00:49:57;;;;;;;10.83;7.43;;;;;;;18.58;63.21;94756.28;5072096;28;20486;-77
2022/05/14 00:52:24;;;;;;;9.83;7.20;;;;;;;18.56;63.19;94755.63;5072630;28;20445;-77
2022/05/14 00:54:59;;;;;;;8.47;7.67;;;;;;;18.52;63.38;94748.22;5072132;28;20488;-77
2022/05/14 00:57:33;;;;;;;8.10;7.30;;;;;;;18.52;63.52;94750.88;5071889;28;20440;-77
2022/05/14 01:00:04;;;;;;;9.23;7.70;;;;;;;18.51;63.42;94754.53;5072274;28;20456;-78
2022/05/14 01:02:31;;;;;;;8.60;7.60;;;;;;;18.53;63.07;94756.00;5071979;28;20510;-77
2022/05/14 01:04:59;;;;;;;9.20;7.10;;;;;;;18.52;62.99;94754.34;5071921;28;20449;-77
2022/05/14 01:07:27;;;;;;;8.70;6.50;;;;;;;18.45;63.45;94749.91;5020102;28;20439;-77
2022/05/14 01:10:00;;;;;;;8.50;7.67;;;;;;;18.26;63.95;94756.59;5072143;28;20441;-77
2022/05/14 01:12:31;;;;;;;9.40;7.47;;;;;;;18.25;64.32;94760.25;5072244;28;20453;-78
2022/05/14 01:15:09;;;;;;;8.20;7.37;;;;;;;18.29;64.18;94760.72;5075721;28;20485;-78
2022/05/14 01:17:36;;;;;;;8.53;7.43;;;;;;;18.25;64.60;94753.13;5075968;28;20448;-77
2022/05/14 01:20:02;;;;;;;7.00;6.50;;;;;;;18.20;64.85;94757.28;5076242;28;20563;-77
2022/05/14 01:22:42;;;;;;;9.77;7.77;;;;;;;18.09;65.03;94760.38;5075735;28;20448;-77
2022/05/14 01:28:05;;;;;;;8.30;7.10;;;;;;;18.04;65.31;94752.97;5075773;28;20993;-76
2022/05/14 01:30:33;;;;;;;8.93;8.03;;;;;;;17.91;65.75;94756.19;5075662;28;20459;-77
2022/05/14 01:33:06;;;;;;;10.87;8.00;;;;;;;17.94;65.68;94750.56;5075629;28;21046;-77
2022/05/14 01:35:33;;;;;;;7.90;7.07;;;;;;;17.97;65.85;94756.53;5075594;28;20492;-77
2022/05/14 01:38:01;;;;;;;12.00;8.20;;;;;;;17.93;66.07;94751.56;5075599;28;20441;-78
2022/05/14 01:40:28;;;;;;;9.33;7.33;;;;;;;17.92;66.08;94754.38;5076045;28;20452;-77
2022/05/14 01:42:55;;;;;;;9.10;6.97;;;;;;;17.90;65.79;94749.25;5075794;28;20441;-76
2022/05/14 01:45:23;;;;;;;8.43;7.70;;;;;;;17.87;66.42;94740.81;5075878;28;20449;-77
2022/05/14 01:47:51;;;;;;;11.03;7.80;;;;;;;17.86;66.16;94749.78;5075543;28;20460;-78
2022/05/14 01:50:18;;;;;;;8.77;8.07;;;;;;;17.85;65.99;94735.69;5075116;28;20931;-78
2022/05/14 01:52:45;;;;;;;8.07;7.33;;;;;;;17.82;66.07;94737.88;5075257;28;20441;-77
2022/05/14 01:55:12;;;;;;;8.13;7.43;;;;;;;17.76;66.56;94730.63;5075252;28;20479;-77
2022/05/14 01:57:39;;;;;;;8.60;7.80;;;;;;;17.74;66.73;94729.97;5075117;28;20459;-77
2022/05/14 02:00:07;;;;;;;9.27;8.43;;;;;;;17.71;66.58;94731.16;5075394;28;20452;-77
2022/05/14 02:02:35;;;;;;;8.13;7.20;;;;;;;17.74;66.49;94738.78;5074992;28;20451;-76
2022/05/14 02:05:02;;;;;;;8.10;7.30;;;;;;;17.65;66.70;94734.50;5074903;28;20784;-77
2022/05/14 02:07:29;;;;;;;9.93;7.10;;;;;;;17.61;66.87;94730.53;5074974;28;20444;-77
2022/05/14 02:09:56;;;;;;;8.40;7.33;;;;;;;17.61;67.23;94735.84;5074950;28;21551;-77
2022/05/14 02:12:23;;;;;;;10.20;7.83;;;;;;;17.63;67.16;94739.13;5074883;28;20832;-77
2022/05/14 02:14:49;;;;;;;12.13;8.10;;;;;;;17.66;66.96;94738.81;5074705;28;20485;-77
2022/05/14 02:17:16;;;;;;;9.50;8.70;;;;;;;17.57;66.93;94737.19;5075032;28;20436;-76
2022/05/14 02:19:45;;;;;;;8.10;7.23;;;;;;;17.50;67.27;94734.41;5074700;28;20479;-76
2022/05/14 02:22:12;;;;;;;10.60;7.70;;;;;;;17.41;67.72;94737.31;5074618;28;20441;-77
2022/05/14 02:24:38;;;;;;;9.37;8.03;;;;;;;17.40;68.29;94739.13;5074308;28;20436;-76
2022/05/14 02:27:06;;;;;;;9.43;8.53;;;;;;;17.39;68.44;94734.00;5022850;28;20453;-77
2022/05/14 02:29:50;;;;;;;10.70;7.70;;;;;;;17.33;68.22;94739.00;5023210;28;20449;-78
2022/05/14 02:32:17;;;;;;;9.63;8.70;;;;;;;17.32;68.72;94744.47;5074364;28;20456;-77
2022/05/14 02:34:46;;;;;;;12.27;9.57;;;;;;;17.31;68.45;94735.69;5074395;28;20476;-77
2022/05/14 02:37:14;;;;;;;8.50;7.70;;;;;;;17.29;68.81;94737.69;5074376;28;20440;-77
2022/05/14 02:39:40;;;;;;;9.00;8.10;;;;;;;17.30;68.64;94731.38;5074692;28;20449;-77
2022/05/14 02:42:08;;;;;;;8.70;7.80;;;;;;;17.28;69.16;94736.03;5022928;28;20441;-77
2022/05/14 02:44:35;;;;;;;8.20;7.37;;;;;;;17.29;68.77;94736.88;5023054;28;20449;-77
2022/05/14 02:47:01;;;;;;;8.53;7.73;;;;;;;17.27;68.84;94734.38;5022825;28;20452;-77
2022/05/14 02:49:28;;;;;;;10.10;9.17;;;;;;;17.27;68.87;94737.03;5074122;28;20453;-77
2022/05/14 02:51:57;;;;;;;9.67;8.67;;;;;;;17.30;69.49;94735.88;5073911;28;20451;-76
2022/05/14 02:54:24;;;;;;;9.07;8.27;;;;;;;17.30;69.46;94734.03;5074049;28;20502;-77
2022/05/14 02:56:51;;;;;;;8.43;7.73;;;;;;;17.25;69.66;94743.53;5073787;28;20457;-77
2022/05/14 02:59:18;;;;;;;8.83;7.93;;;;;;;17.28;69.57;94736.03;5073915;28;20457;-76
2022/05/14 03:01:54;;;;;;;8.83;8.03;;;;;;;17.31;69.19;94735.69;5073800;28;20441;-78
2022/05/14 03:04:23;;;;;;;8.77;8.00;;;;;;;17.25;69.89;94736.41;5074497;28;20437;-77
2022/05/14 03:06:51;;;;;;;13.93;8.07;;;;;;;17.28;69.41;94745.81;5073911;28;20471;-77
2022/05/14 03:09:19;;;;;;;9.57;8.67;;;;;;;17.25;69.45;94743.53;5073585;28;20537;-76
2022/05/14 03:11:47;;;;;;;9.97;7.80;;;;;;;17.16;70.10;94742.75;5073933;28;20780;-78
2022/05/14 03:14:14;;;;;;;16.37;9.30;;;;;;;17.09;69.85;94741.81;5073837;28;20437;-77
2022/05/14 03:16:42;;;;;;;11.17;8.60;;;;;;;17.12;70.70;94743.28;5073466;28;20484;-78
2022/05/14 03:19:09;;;;;;;9.70;8.80;;;;;;;17.06;70.43;94746.59;5073737;28;20472;-77
2022/05/14 03:21:36;;;;;;;9.77;8.77;;;;;;;17.10;70.43;94740.81;5021801;28;20497;-77
2022/05/14 03:24:04;;;;;;;12.70;8.83;;;;;;;17.13;70.86;94744.94;5073740;28;20456;-77
2022/05/14 03:26:32;;;;;;;9.23;8.33;;;;;;;17.18;70.20;94746.06;5073569;28;20922;-76
2022/05/14 03:28:59;;;;;;;10.57;9.57;;;;;;;17.17;70.41;94746.22;5021679;28;20444;-77
2022/05/14 03:31:26;;;;;;;10.80;8.83;;;;;;;17.24;70.27;94750.66;5073365;28;20799;-77
2022/05/14 03:33:53;;;;;;;11.80;9.40;;;;;;;17.27;70.10;94747.66;5073522;28;20465;-77
2022/05/14 03:36:20;;;;;;;9.37;8.60;;;;;;;17.25;70.54;94759.44;5072591;28;20483;-78
2022/05/14 03:38:47;;;;;;;10.43;8.67;;;;;;;17.31;69.94;94756.09;5073393;28;20443;-77
2022/05/14 03:41:14;;;;;;;10.00;9.10;;;;;;;17.31;70.17;94762.22;5073048;28;20433;-77
2022/05/14 03:43:44;;;;;;;10.93;8.40;;;;;;;17.36;70.25;94760.88;5073013;28;20436;-77
2022/05/14 03:46:10;;;;;;;10.30;9.23;;;;;;;17.41;70.48;94761.19;5073054;28;20535;-77
2022/05/14 03:48:38;;;;;;;10.63;9.57;;;;;;;17.47;70.25;94760.47;5021392;28;20455;-77
2022/05/14 03:51:05;;;;;;;11.30;9.10;;;;;;;17.54;70.04;94774.69;5072943;28;20449;-76
2022/05/14 03:53:33;;;;;;;9.70;8.80;;;;;;;17.54;69.54;94772.88;5021446;28;20460;-75
2022/05/14 03:56:00;;;;;;;10.03;8.50;;;;;;;17.62;69.19;94769.31;5072989;28;21014;-77
2022/05/14 03:58:27;;;;;;;10.73;9.40;;;;;;;17.63;69.77;94768.31;5072890;28;20441;-77
2022/05/14 04:00:55;;;;;;;16.03;10.10;;;;;;;17.74;69.72;94772.44;5021238;28;20441;-78
2022/05/14 04:03:22;;;;;;;9.73;8.80;;;;;;;17.94;68.87;94777.13;5072912;28;20465;-77
2022/05/14 04:05:50;;;;;;;10.57;9.57;;;;;;;18.23;68.23;94772.91;5072637;28;20449;-77
2022/05/14 04:08:17;;;;;;;12.23;8.97;;;;;;;18.48;66.82;94771.63;5072632;28;20451;-77
2022/05/14 04:10:44;;;;;;;9.90;8.90;;;;;;;18.69;65.95;94768.31;5072450;28;20445;-77
2022/05/14 04:13:12;;;;;;;12.67;8.53;;;;;;;18.77;65.16;94770.03;5073000;28;20441;-78
2022/05/14 04:15:39;;;;;;;15.33;9.43;;;;;;;18.91;64.60;94777.22;5072674;28;20507;-77
2022/05/14 04:18:09;;;;;;;11.67;9.07;;;;;;;18.94;64.40;94770.69;5072342;28;20451;-76
2022/05/14 04:20:36;;;;;;;9.30;8.50;;;;;;;19.10;63.92;94781.16;5021395;28;20528;-77
2022/05/14 04:23:04;;;;;;;9.57;8.43;;;;;;;19.23;63.36;94780.47;5072269;28;20823;-76
2022/05/14 04:25:31;;;;;;;9.60;8.77;;;;;;;19.36;62.48;94780.63;5072643;28;20437;-78
2022/05/14 04:27:59;;;;;;;10.80;9.13;;;;;;;19.35;62.16;94778.97;5072327;28;20441;-77
2022/05/14 04:30:26;;;;;;;10.60;7.70;;;;;;;19.45;62.93;94790.19;5072064;28;20498;-76
2022/05/14 04:32:53;;;;;;;10.77;9.80;;;;;;;19.40;62.31;94789.91;5072974;28;20448;-77
2022/05/14 04:35:22;;;;;;;12.20;9.40;;;;;;;19.33;62.94;94792.47;5072006;28;20484;-78
2022/05/14 04:37:48;;;;;;;14.80;11.07;;;;;;;19.21;63.83;94809.09;5072328;28;20457;-77
2022/05/14 04:40:15;;;;;;;11.10;9.93;;;;;;;19.27;64.40;94797.72;5072296;28;20808;-77
2022/05/14 04:42:42;;;;;;;15.67;11.40;;;;;;;19.43;63.57;94797.53;5072153;28;20437;-76
2022/05/14 04:45:11;;;;;;;12.03;9.20;;;;;;;19.60;62.17;94808.78;5071422;28;20786;-78
2022/05/14 04:47:41;;;;;;;9.33;8.37;;;;;;;19.71;61.46;94806.50;5070590;28;20453;-77
2022/05/14 04:50:09;;;;;;;19.43;10.03;;;;;;;20.10;60.46;94815.88;5071817;28;20490;-78
2022/05/14 04:52:37;;;;;;;17.80;8.63;;;;;;;20.32;59.34;94811.38;5020485;28;20444;-77
2022/05/14 04:55:06;;;;;;;14.73;10.23;;;;;;;20.27;58.57;94806.63;5072284;28;20451;-77
2022/05/14 04:57:33;;;;;;;14.47;10.60;;;;;;;20.42;58.98;94814.56;5072703;28;20455;-77
2022/05/14 05:00:00;;;;;;;19.40;10.07;;;;;;;20.56;59.40;94812.84;5072221;28;20437;-78
2022/05/14 05:05:13;;;;;;;15.70;9.50;;;;;;;20.87;57.66;94813.28;5072007;28;20435;-77
2022/05/14 05:07:42;;;;;;;15.53;8.70;;;;;;;20.98;57.83;94823.41;5071662;28;20444;-78
2022/05/14 05:10:09;;;;;;;12.20;9.00;;;;;;;20.93;57.54;94815.16;5071994;28;20445;-77
2022/05/14 05:12:36;;;;;;;11.37;8.73;;;;;;;20.86;58.04;94818.81;5072105;28;20543;-77
2022/05/14 05:15:04;;;;;;;13.43;9.80;;;;;;;20.75;59.14;94820.16;5071846;28;20440;-77
2022/05/14 05:17:31;;;;;;;11.10;9.93;;;;;;;20.46;58.71;94817.69;5071927;28;20494;-77
2022/05/14 05:19:57;;;;;;;24.17;10.80;;;;;;;20.25;59.88;94816.66;5071728;28;20487;-77
2022/05/14 05:22:24;;;;;;;21.10;10.30;;;;;;;19.92;61.51;94821.63;5071981;28;20448;-77
2022/05/14 05:24:53;;;;;;;14.13;10.30;;;;;;;19.77;62.68;94824.38;5071707;28;21005;-77
2022/05/14 05:27:19;;;;;;;11.67;10.23;;;;;;;19.68;63.38;94812.19;5071651;28;20451;-77
2022/05/14 05:29:47;;;;;;;14.40;10.33;;;;;;;19.68;63.89;94817.50;5071646;28;20455;-77
2022/05/14 05:32:14;;;;;;;15.63;10.80;;;;;;;19.67;64.86;94820.38;5071604;28;20448;-76
2022/05/14 05:34:41;;;;;;;12.60;9.33;;;;;;;19.51;63.33;94824.03;5071834;28;20441;-77
2022/05/14 05:37:08;;;;;;;13.20;9.67;;;;;;;19.51;63.83;94824.03;5071747;28;20487;-77
2022/05/14 05:39:35;;;;;;;13.90;9.00;;;;;;;19.25;65.34;94839.66;5019801;28;20451;-78
2022/05/14 05:42:03;;;;;;;9.87;8.70;;;;;;;19.27;65.30;94835.78;5071904;28;20491;-77
2022/05/14 05:44:30;;;;;;;15.23;9.90;;;;;;;19.18;66.44;94839.56;5071811;28;20437;-78
2022/05/14 05:46:57;;;;;;;22.73;9.90;;;;;;;19.15;67.02;94842.59;5071554;28;20449;-77
2022/05/14 05:49:24;;;;;;;13.40;10.03;;;;;;;19.32;66.77;94844.03;5071657;28;20444;-77
2022/05/14 05:51:51;;;;;;;18.40;11.33;;;;;;;19.30;66.36;94845.25;5071596;28;20963;-78
2022/05/14 05:57:04;;;;;;;25.77;10.37;;;;;;;19.74;65.13;94854.03;5071777;28;20484;-78
2022/05/14 05:59:34;;;;;;;19.10;10.30;;;;;;;19.36;65.24;94847.16;5073015;28;20451;-77
2022/05/14 06:02:01;;;;;;;17.27;10.40;;;;;;;19.47;65.79;94846.72;5073491;28;20472;-78
2022/05/14 06:04:28;;;;;;;11.93;8.87;;;;;;;19.65;64.98;94856.97;5074891;28;20456;-77
2022/05/14 06:06:55;;;;;;;11.93;10.20;;;;;;;19.84;63.80;94844.91;5074902;28;20447;-77
2022/05/14 06:09:24;;;;;;;16.83;10.23;;;;;;;19.99;63.19;94854.53;5075242;28;20445;-78
2022/05/14 06:11:51;;;;;;;18.07;9.80;;;;;;;20.21;63.72;94854.50;5075180;28;20465;-77
2022/05/14 06:14:21;;;;;;;18.97;10.27;;;;;;;20.23;64.01;94853.31;5039221;28;20437;-78
2022/05/14 06:16:48;;;;;;;12.90;10.60;;;;;;;19.90;64.42;94855.63;5074657;28;20492;-77
2022/05/14 06:19:15;;;;;;;14.47;10.37;;;;;;;19.89;65.00;94869.97;5074441;28;20475;-77
2022/05/14 06:21:42;;;;;;;16.00;10.10;;;;;;;19.50;65.81;94856.97;5074658;28;20452;-77
2022/05/14 06:24:10;;;;;;;15.33;11.40;;;;;;;19.34;67.10;94863.31;5074848;28;20453;-77
2022/05/14 06:26:38;;;;;;;13.23;11.83;;;;;;;19.15;68.31;94867.38;5074807;28;20440;-77
2022/05/14 06:29:05;;;;;;;14.73;11.33;;;;;;;19.09;69.54;94860.13;5074841;28;20460;-78
2022/05/14 06:31:34;;;;;;;11.73;10.67;;;;;;;19.22;70.00;94863.97;5074301;28;20944;-77
2022/05/14 06:34:01;;;;;;;15.37;10.27;;;;;;;19.84;69.32;94871.53;5074102;28;20437;-77
2022/05/14 06:36:28;;;;;;;13.13;10.70;;;;;;;20.42;66.13;94868.72;5074452;28;21007;-77
2022/05/14 06:38:55;;;;;;;12.67;10.90;;;;;;;20.88;62.88;94862.13;5074263;28;20796;-77
2022/05/14 06:41:22;;;;;;;14.23;11.60;;;;;;;21.27;61.64;94861.59;5074287;28;20975;-77
2022/05/14 06:43:49;;;;;;;16.20;10.87;;;;;;;21.71;60.81;94868.41;5073942;28;20830;-77
2022/05/14 06:46:15;;;;;;;14.90;10.93;;;;;;;22.04;60.21;94869.38;5074144;28;20445;-77
2022/05/14 06:48:44;;;;;;;11.20;10.10;;;;;;;22.18;58.28;94865.69;5074470;28;20781;-77
2022/05/14 06:51:15;;;;;;;12.43;10.13;;;;;;;22.63;58.21;94867.84;5073936;28;20441;-76
2022/05/14 06:53:43;;;;;;;11.03;9.93;;;;;;;22.89;55.58;94877.75;5074155;28;20445;-77
2022/05/14 06:56:13;;;;;;;11.43;10.40;;;;;;;23.15;55.44;94878.56;5073995;28;20484;-78
2022/05/14 06:58:41;;;;;;;15.10;10.80;;;;;;;23.37;54.21;94872.97;5074170;28;20441;-77
2022/05/14 07:01:10;;;;;;;12.33;10.77;;;;;;;23.39;54.49;94879.75;5074178;28;20448;-77
2022/05/14 07:06:41;;;;;;;14.23;10.33;;;;;;;23.59;54.27;94868.19;5073920;28;20432;-76
2022/05/14 07:09:12;;;;;;;17.03;11.60;;;;;;;23.06;56.64;94876.31;5072409;28;20502;-78
2022/05/14 07:11:41;;;;;;;13.63;11.10;;;;;;;23.22;56.01;94875.06;5072869;28;20449;-77
2022/05/14 07:14:10;;;;;;;13.90;10.73;;;;;;;23.44;54.48;94881.81;5073592;28;20453;-77
2022/05/14 07:16:37;;;;;;;10.70;9.53;;;;;;;23.82;53.24;94881.94;5073288;28;20492;-77
2022/05/14 07:19:06;;;;;;;14.47;10.77;;;;;;;23.81;52.71;94876.78;5073572;28;20468;-78
2022/05/14 07:21:36;;;;;;;13.13;11.20;;;;;;;24.15;52.16;94876.44;5038361;28;21030;-78
2022/05/14 07:24:05;;;;;;;11.07;9.97;;;;;;;24.34;53.20;94882.78;5073525;28;20444;-77
2022/05/14 07:26:34;;;;;;;10.70;9.50;;;;;;;24.62;52.64;94888.59;5073597;28;20477;-76
2022/05/14 07:29:01;;;;;;;12.50;10.80;;;;;;;24.79;49.29;94885.34;5073413;28;20437;-78
2022/05/14 07:31:28;;;;;;;11.13;10.00;;;;;;;25.03;50.61;94884.56;5073349;28;20791;-77
2022/05/14 07:33:55;;;;;;;12.20;11.00;;;;;;;25.23;49.05;94879.03;5073229;28;20471;-78
2022/05/14 07:36:24;;;;;;;15.00;10.60;;;;;;;25.66;47.94;94876.31;5072835;28;20485;-78
2022/05/14 07:38:55;;;;;;;11.47;10.27;;;;;;;25.94;47.92;94882.00;5073093;28;20552;-78
2022/05/14 07:41:23;;;;;;;11.30;10.17;;;;;;;26.21;47.13;94873.63;5021414;28;20444;-77
2022/05/14 07:43:54;;;;;;;17.33;10.70;;;;;;;26.66;46.35;94882.13;5073159;28;20452;-78
2022/05/14 07:46:26;;;;;;;11.30;10.17;;;;;;;26.84;45.98;94883.91;5072961;28;21136;-78
2022/05/14 07:48:55;;;;;;;15.30;12.43;;;;;;;26.10;46.60;94885.16;5073046;28;20445;-77
2022/05/14 07:51:22;;;;;;;12.57;11.27;;;;;;;26.07;47.38;94893.69;5072632;28;20455;-77
2022/05/14 07:53:49;;;;;;;17.47;9.60;;;;;;;26.04;48.65;94899.50;5072984;28;20809;-77
2022/05/14 07:56:17;;;;;;;11.50;10.27;;;;;;;25.90;48.56;94896.97;5072721;28;20448;-77
2022/05/14 07:58:46;;;;;;;14.23;10.80;;;;;;;26.07;48.66;94894.50;5072747;28;20441;-78
2022/05/14 08:01:13;;;;;;;13.30;10.97;;;;;;;26.27;47.99;94894.22;5072703;28;20939;-77
2022/05/14 08:03:39;;;;;;;14.20;12.00;;;;;;;25.85;48.06;94887.94;5072833;28;20445;-78
2022/05/14 08:06:09;;;;;;;12.10;10.70;;;;;;;25.39;49.36;94888.38;5072686;28;20445;-77
2022/05/14 08:08:37;;;;;;;15.40;11.20;;;;;;;25.83;49.17;94881.97;5072664;28;20932;-76
2022/05/14 08:11:04;;;;;;;11.47;10.33;;;;;;;26.12;49.42;94880.38;5072694;28;20452;-77
2022/05/14 08:13:34;;;;;;;13.90;11.53;;;;;;;26.19;48.64;94876.53;5072648;28;20453;-77
2022/05/14 08:16:02;;;;;;;12.10;11.00;;;;;;;26.42;48.01;94883.94;5036957;28;20472;-77
2022/05/14 08:18:29;;;;;;;13.20;11.17;;;;;;;26.71;46.52;94878.75;5072657;28;20488;-78
2022/05/14 08:20:56;;;;;;;22.10;12.40;;;;;;;26.96;45.86;94875.88;5037324;28;20948;-78
2022/05/14 08:26:08;;;;;;;12.80;10.30;;;;;;;27.21;46.35;94867.63;5072298;28;20423;-78
2022/05/14 08:28:36;;;;;;;15.13;10.90;;;;;;;27.32;46.98;94862.22;5037052;28;20516;-78
2022/05/14 08:31:03;;;;;;;13.17;11.70;;;;;;;27.43;47.37;94863.28;5020802;28;20443;-77
2022/05/14 08:33:30;;;;;;;18.23;11.27;;;;;;;27.53;47.17;94860.81;5071942;28;20539;-77
2022/05/14 08:35:57;;;;;;;13.00;11.70;;;;;;;27.54;46.59;94857.06;5036806;28;20429;-76
2022/05/14 08:38:24;;;;;;;14.50;11.97;;;;;;;27.50;46.62;94860.47;5072015;28;20481;-77
2022/05/14 08:40:56;;;;;;;11.57;10.37;;;;;;;27.72;45.67;94856.13;5072541;28;20454;-78
2022/05/14 08:43:27;;;;;;;11.40;10.50;;;;;;;27.86;45.50;94860.22;5020486;28;21005;-78
2022/05/14 08:45:56;;;;;;;18.80;10.93;;;;;;;27.99;46.24;94862.63;5020856;28;20441;-78
2022/05/14 08:48:26;;;;;;;15.40;11.50;;;;;;;28.01;45.32;94863.22;5036994;28;20454;-77
2022/05/14 08:50:58;;;;;;;15.97;10.63;;;;;;;28.02;45.12;94858.63;5053220;28;20429;-78
2022/05/14 08:53:27;;;;;;;16.50;11.17;;;;;;;27.50;46.76;94858.59;5072061;28;20498;-77
2022/05/14 08:56:09;;;;;;;12.80;10.97;;;;;;;27.74;45.89;94851.31;5037075;28;20445;-77
2022/05/14 08:58:48;;;;;;;12.90;11.60;;;;;;;27.76;44.80;94854.63;5072001;28;20576;-77
2022/05/14 09:01:22;;;;;;;13.40;11.50;;;;;;;27.74;44.92;94848.63;5072051;28;20440;-77
2022/05/14 09:03:49;;;;;;;20.30;11.80;;;;;;;27.57;45.41;94847.69;5071783;28;20463;-78
2022/05/14 09:06:16;;;;;;;13.70;11.67;;;;;;;27.75;46.07;94845.69;5072244;28;20471;-77
2022/05/14 09:08:43;;;;;;;17.73;11.43;;;;;;;27.93;45.91;94839.31;5071981;28;20449;-77
2022/05/14 09:11:20;;;;;;;14.70;11.27;;;;;;;28.14;45.15;94848.66;5072025;28;20452;-77
2022/05/14 09:13:49;;;;;;;12.98;10.60;;;;;;;28.51;44.69;94850.97;5070803;28;20441;-77
2022/05/14 09:16:24;;;;;;;11.57;10.30;;;;;;;28.66;43.31;94859.38;5071647;28;20205;-76
2022/05/14 09:18:53;;;;;;;19.20;11.40;;;;;;;28.58;44.47;94865.16;5071883;28;20476;-78
2022/05/14 09:21:23;;;;;;;13.50;11.30;;;;;;;28.61;43.35;94861.97;5072026;28;21064;-77
2022/05/14 09:23:55;;;;;;;13.60;12.27;;;;;;;28.62;42.99;94858.19;5071832;28;20445;-77
2022/05/14 09:26:28;;;;;;;12.67;11.37;;;;;;;28.80;43.56;94858.00;5071611;28;20502;-76
2022/05/14 09:28:57;;;;;;;14.27;9.90;;;;;;;28.82;43.69;94853.16;5019786;28;20429;-78
2022/05/14 09:31:28;;;;;;;17.60;11.40;;;;;;;28.59;42.06;94858.69;5071918;28;20440;-77
2022/05/14 09:34:06;;;;;;;12.37;11.07;;;;;;;28.67;42.75;94831.31;5072473;28;20433;-78
2022/05/14 09:36:36;;;;;;;18.67;11.50;;;;;;;28.75;43.31;94839.00;5075395;28;20447;-77
2022/05/14 09:39:07;;;;;;;17.03;10.43;;;;;;;28.74;44.15;94845.47;5075383;28;20440;-77
2022/05/14 09:41:41;;;;;;;20.17;12.47;;;;;;;28.40;43.78;94841.06;5075675;28;20449;-78
2022/05/14 09:44:14;;;;;;;16.17;11.80;;;;;;;28.38;45.83;94835.91;5075401;28;20493;-76
2022/05/14 09:46:42;;;;;;;14.80;11.40;;;;;;;28.14;45.67;94832.47;5075190;28;21012;-78
2022/05/14 09:49:10;;;;;;;13.37;10.50;;;;;;;27.87;47.35;94829.50;5075335;28;20445;-78
2022/05/14 09:51:48;;;;;;;17.90;11.10;;;;;;;26.94;47.55;94821.44;5075095;28;20490;-78
2022/05/14 09:54:24;;;;;;;13.87;11.33;;;;;;;26.04;49.63;94824.22;5075864;28;20810;-77
2022/05/14 09:57:28;;;;;;;23.00;12.70;;;;;;;25.91;51.46;94819.81;5075311;28;20527;-78
2022/05/14 10:00:08;;;;;;;12.93;11.20;;;;;;;25.77;52.20;94832.59;5075202;28;20447;-78
2022/05/14 10:02:52;;;;;;;15.53;11.60;;;;;;;25.52;52.21;94834.53;5074819;28;20458;-78
2022/05/14 10:05:34;;;;;;;16.17;12.40;;;;;;;25.72;53.18;94837.00;5075232;28;20803;-77
2022/05/14 10:08:13;;;;;;;12.63;11.20;;;;;;;25.53;52.76;94849.59;5075153;28;20451;-77
2022/05/14 10:10:46;;;;;;;16.07;12.00;;;;;;;24.98;59.09;94874.50;5075050;28;20437;-76
2022/05/14 10:13:21;;;;;;;18.03;13.83;;;;;;;24.34;64.86;94888.13;5074872;28;20551;-78
2022/05/14 10:15:57;;;;;;;17.37;12.83;;;;;;;23.59;67.65;94889.63;5074784;28;20444;-78
2022/05/14 10:18:39;;;;;;;15.83;13.37;;;;;;;22.39;72.15;94882.63;5074621;28;20487;-78
2022/05/14 10:21:13;;;;;;;15.83;14.27;;;;;;;21.96;75.83;94888.22;5056034;28;20437;-76
2022/05/14 10:26:52;;;;;;;17.57;15.43;;;;;;;21.40;78.91;94893.72;5074706;28;20895;-77
2022/05/14 10:29:32;;;;;;;18.67;15.50;;;;;;;21.02;80.40;94890.53;5074623;28;20816;-77
2022/05/14 10:32:03;;;;;;;19.97;18.10;;;;;;;20.99;81.83;94886.41;5074619;28;20445;-77
2022/05/14 10:34:41;;;;;;;21.10;18.33;;;;;;;21.08;82.53;94891.59;5074610;28;20456;-78
2022/05/14 10:37:16;;;;;;;25.00;19.60;;;;;;;21.14;82.37;94893.50;5074290;28;20484;-78
2022/05/14 10:39:47;;;;;;;20.53;18.43;;;;;;;21.44;83.23;94894.97;5074240;28;20451;-77
2022/05/14 10:42:18;;;;;;;21.60;15.10;;;;;;;21.77;80.90;94886.31;5074883;28;20464;-77
2022/05/14 10:44:52;;;;;;;17.60;15.63;;;;;;;22.14;78.07;94885.84;5074191;28;20444;-77
2022/05/14 10:47:21;;;;;;;22.20;16.27;;;;;;;22.67;76.57;94885.94;5073938;28;20456;-77
2022/05/14 10:49:58;;;;;;;18.13;15.20;;;;;;;23.21;74.27;94884.13;5074138;28;20452;-78
2022/05/14 10:52:25;;;;;;;20.03;13.13;;;;;;;23.54;70.08;94876.03;5074047;28;20441;-78
2022/05/14 10:54:52;;;;;;;16.80;13.10;;;;;;;23.89;65.86;94871.19;5073869;28;20515;-77
2022/05/14 10:57:40;;;;;;;14.40;12.93;;;;;;;24.28;64.02;94872.88;5073977;28;20481;-78
2022/05/14 11:00:20;;;;;;;15.77;11.53;;;;;;;24.65;62.12;94865.84;5074164;28;20452;-78
2022/05/14 11:02:55;;;;;;;13.80;11.80;;;;;;;24.96;62.05;94852.38;5022025;28;20440;-78
2022/05/14 11:05:33;;;;;;;14.07;10.63;;;;;;;25.24;60.61;94851.13;5073920;28;20453;-77
2022/05/14 11:08:15;;;;;;;16.33;12.20;;;;;;;25.31;58.51;94841.13;5074224;28;20460;-77
2022/05/14 11:10:42;;;;;;;13.60;11.57;;;;;;;25.32;59.16;94853.53;5073968;28;20449;-77
2022/05/14 11:13:14;;;;;;;12.20;10.93;;;;;;;25.26;58.46;94857.09;5038519;28;20448;-78
2022/05/14 11:15:43;;;;;;;13.50;12.13;;;;;;;25.31;60.73;94854.56;5073701;28;20532;-77
2022/05/14 11:18:12;;;;;;;12.50;11.20;;;;;;;25.41;60.69;94851.38;5073368;28;20481;-77
2022/05/14 11:20:54;;;;;;;15.67;12.13;;;;;;;25.49;61.02;94851.09;5022006;28;20437;-77
2022/05/14 11:23:21;;;;;;;15.17;11.30;;;;;;;25.55;62.10;94852.88;5073362;28;20445;-78
2022/05/14 11:25:48;;;;;;;14.20;12.70;;;;;;;25.45;61.32;94852.59;5073405;28;20441;-78
2022/05/14 11:28:28;;;;;;;13.47;11.60;;;;;;;25.59;60.45;94848.69;5073449;28;20444;-77
2022/05/14 11:30:57;;;;;;;15.20;11.53;;;;;;;25.78;59.66;94857.63;5073561;28;20916;-78
2022/05/14 11:33:32;;;;;;;12.20;11.10;;;;;;;25.77;58.26;94853.28;5073166;28;20527;-78
2022/05/14 11:36:03;;;;;;;13.40;12.00;;;;;;;25.84;58.27;94845.97;5073468;28;20440;-78
2022/05/14 11:38:35;;;;;;;14.30;10.17;;;;;;;25.77;55.32;94846.06;5073284;28;20485;-77
2022/05/14 11:41:05;;;;;;;13.27;10.17;;;;;;;25.70;54.13;94847.16;5073366;28;20533;-77
2022/05/14 11:43:34;;;;;;;12.13;10.67;;;;;;;25.62;56.16;94846.38;5073071;28;20451;-77
2022/05/14 11:46:27;;;;;;;17.10;11.33;;;;;;;25.53;56.41;94841.53;5073042;28;20456;-77
2022/05/14 11:48:59;;;;;;;11.60;10.50;;;;;;;25.31;55.40;94844.66;5073012;28;20445;-77
2022/05/14 11:51:36;;;;;;;11.30;10.30;;;;;;;25.30;57.44;94832.25;5073304;28;20448;-76
2022/05/14 11:54:08;;;;;;;14.70;10.33;;;;;;;25.19;56.58;94827.63;5021171;28;20447;-77